sensor_id;sensor_type;location;lat;lon;timestamp;pressure;altitude;pressure_sealevel;temperature
20092;BMP180;10205;49.678;6.560;2023-06-14T00:01:10;99576.00;;;28.40
20092;BMP180;10205;49.678;6.560;2023-06-14T00:03:39;99568.00;;;28.30
20092;BMP180;10205;49.678;6.560;2023-06-14T00:06:06;99570.00;;;28.30
20092;BMP180;10205;49.678;6.560;2023-06-14T00:08:33;99573.00;;;28.20
20092;BMP180;10205;49.678;6.560;2023-06-14T00:11:02;99577.00;;;28.10
20092;BMP180;10205;49.678;6.560;2023-06-14T00:13:29;99573.00;;;28.00
20092;BMP180;10205;49.678;6.560;2023-06-14T00:15:56;99574.00;;;28.00
20092;BMP180;10205;49.678;6.560;2023-06-14T00:18:24;99572.00;;;27.90
20092;BMP180;10205;49.678;6.560;2023-06-14T00:20:55;99570.00;;;27.80
20092;BMP180;10205;49.678;6.560;2023-06-14T00:23:22;99566.00;;;27.80
20092;BMP180;10205;49.678;6.560;2023-06-14T00:25:49;99574.00;;;27.70
20092;BMP180;10205;49.678;6.560;2023-06-14T00:28:19;99567.00;;;27.60
20092;BMP180;10205;49.678;6.560;2023-06-14T00:30:46;99573.00;;;27.60
20092;BMP180;10205;49.678;6.560;2023-06-14T00:33:14;99573.00;;;27.50
20092;BMP180;10205;49.678;6.560;2023-06-14T00:35:41;99573.00;;;27.40
20092;BMP180;10205;49.678;6.560;2023-06-14T00:38:08;99576.00;;;27.40
20092;BMP180;10205;49.678;6.560;2023-06-14T00:40:35;99576.00;;;27.30
20092;BMP180;10205;49.678;6.560;2023-06-14T00:43:02;99572.00;;;27.20
20092;BMP180;10205;49.678;6.560;2023-06-14T00:45:31;99572.00;;;27.20
20092;BMP180;10205;49.678;6.560;2023-06-14T00:48:02;99575.00;;;27.10
20092;BMP180;10205;49.678;6.560;2023-06-14T00:50:32;99585.00;;;27.00
20092;BMP180;10205;49.678;6.560;2023-06-14T00:53:00;99583.00;;;27.00
20092;BMP180;10205;49.678;6.560;2023-06-14T00:55:28;99586.00;;;26.90
20092;BMP180;10205;49.678;6.560;2023-06-14T00:57:56;99580.00;;;26.90
20092;BMP180;10205;49.678;6.560;2023-06-14T01:00:23;99584.00;;;26.80
20092;BMP180;10205;49.678;6.560;2023-06-14T01:02:52;99587.00;;;26.80
20092;BMP180;10205;49.678;6.560;2023-06-14T01:05:19;99586.00;;;26.70
20092;BMP180;10205;49.678;6.560;2023-06-14T01:08:14;99594.00;;;26.60
20092;BMP180;10205;49.678;6.560;2023-06-14T01:10:56;99589.00;;;26.50
20092;BMP180;10205;49.678;6.560;2023-06-14T01:13:33;99593.00;;;26.50
20092;BMP180;10205;49.678;6.560;2023-06-14T01:16:01;99589.00;;;26.40
20092;BMP180;10205;49.678;6.560;2023-06-14T01:18:30;99590.00;;;26.40
20092;BMP180;10205;49.678;6.560;2023-06-14T01:20:58;99597.00;;;26.30
20092;BMP180;10205;49.678;6.560;2023-06-14T01:23:26;99593.00;;;26.20
20092;BMP180;10205;49.678;6.560;2023-06-14T01:25:58;99606.00;;;26.20
20092;BMP180;10205;49.678;6.560;2023-06-14T01:28:29;99593.00;;;26.10
20092;BMP180;10205;49.678;6.560;2023-06-14T01:31:02;99593.00;;;26.10
20092;BMP180;10205;49.678;6.560;2023-06-14T01:33:32;99595.00;;;26.00
20092;BMP180;10205;49.678;6.560;2023-06-14T01:36:01;99597.00;;;26.00
20092;BMP180;10205;49.678;6.560;2023-06-14T01:38:31;99594.00;;;25.90
20092;BMP180;10205;49.678;6.560;2023-06-14T01:41:00;99601.00;;;25.90
20092;BMP180;10205;49.678;6.560;2023-06-14T01:43:31;99599.00;;;25.80
20092;BMP180;10205;49.678;6.560;2023-06-14T01:45:59;99603.00;;;25.80
20092;BMP180;10205;49.678;6.560;2023-06-14T01:48:27;99598.00;;;25.70
20092;BMP180;10205;49.678;6.560;2023-06-14T01:50:54;99607.00;;;25.70
20092;BMP180;10205;49.678;6.560;2023-06-14T01:53:22;99607.00;;;25.60
20092;BMP180;10205;49.678;6.560;2023-06-14T01:55:50;99604.00;;;25.60
20092;BMP180;10205;49.678;6.560;2023-06-14T01:58:19;99611.00;;;25.50
20092;BMP180;10205;49.678;6.560;2023-06-14T02:00:47;99606.00;;;25.50
20092;BMP180;10205;49.678;6.560;2023-06-14T02:03:14;99609.00;;;25.40
20092;BMP180;10205;49.678;6.560;2023-06-14T02:05:41;99612.00;;;25.40
20092;BMP180;10205;49.678;6.560;2023-06-14T02:08:08;99603.00;;;25.30
20092;BMP180;10205;49.678;6.560;2023-06-14T02:10:35;99612.00;;;25.30
20092;BMP180;10205;49.678;6.560;2023-06-14T02:13:04;99609.00;;;25.20
20092;BMP180;10205;49.678;6.560;2023-06-14T02:15:31;99616.00;;;25.20
20092;BMP180;10205;49.678;6.560;2023-06-14T02:18:01;99616.00;;;25.10
20092;BMP180;10205;49.678;6.560;2023-06-14T02:20:29;99612.00;;;25.10
20092;BMP180;10205;49.678;6.560;2023-06-14T02:22:58;99607.00;;;25.00
20092;BMP180;10205;49.678;6.560;2023-06-14T02:25:25;99616.00;;;25.00
20092;BMP180;10205;49.678;6.560;2023-06-14T02:27:53;99614.00;;;24.90
20092;BMP180;10205;49.678;6.560;2023-06-14T02:30:22;99612.00;;;24.90
20092;BMP180;10205;49.678;6.560;2023-06-14T02:32:49;99609.00;;;24.80
20092;BMP180;10205;49.678;6.560;2023-06-14T02:35:17;99613.00;;;24.80
20092;BMP180;10205;49.678;6.560;2023-06-14T02:37:44;99608.00;;;24.70
20092;BMP180;10205;49.678;6.560;2023-06-14T02:40:12;99615.00;;;24.70
20092;BMP180;10205;49.678;6.560;2023-06-14T02:42:39;99608.00;;;24.60
20092;BMP180;10205;49.678;6.560;2023-06-14T02:45:08;99604.00;;;24.60
20092;BMP180;10205;49.678;6.560;2023-06-14T02:47:37;99604.00;;;24.50
20092;BMP180;10205;49.678;6.560;2023-06-14T02:50:05;99599.00;;;24.50
20092;BMP180;10205;49.678;6.560;2023-06-14T02:52:33;99609.00;;;24.40
20092;BMP180;10205;49.678;6.560;2023-06-14T02:55:00;99617.00;;;24.40
20092;BMP180;10205;49.678;6.560;2023-06-14T02:57:28;99617.00;;;24.30
20092;BMP180;10205;49.678;6.560;2023-06-14T02:59:55;99617.00;;;24.30
20092;BMP180;10205;49.678;6.560;2023-06-14T03:02:22;99616.00;;;24.20
20092;BMP180;10205;49.678;6.560;2023-06-14T03:04:51;99616.00;;;24.20
20092;BMP180;10205;49.678;6.560;2023-06-14T03:07:18;99616.00;;;24.20
20092;BMP180;10205;49.678;6.560;2023-06-14T03:09:45;99620.00;;;24.10
20092;BMP180;10205;49.678;6.560;2023-06-14T03:12:14;99613.00;;;24.10
20092;BMP180;10205;49.678;6.560;2023-06-14T03:14:41;99624.00;;;24.00
20092;BMP180;10205;49.678;6.560;2023-06-14T03:17:11;99628.00;;;24.00
20092;BMP180;10205;49.678;6.560;2023-06-14T03:19:38;99621.00;;;23.90
20092;BMP180;10205;49.678;6.560;2023-06-14T03:22:08;99623.00;;;23.90
20092;BMP180;10205;49.678;6.560;2023-06-14T03:24:37;99631.00;;;23.90
20092;BMP180;10205;49.678;6.560;2023-06-14T03:27:05;99627.00;;;23.80
20092;BMP180;10205;49.678;6.560;2023-06-14T03:29:33;99629.00;;;23.80
20092;BMP180;10205;49.678;6.560;2023-06-14T03:32:02;99638.00;;;23.70
20092;BMP180;10205;49.678;6.560;2023-06-14T03:34:29;99628.00;;;23.70
20092;BMP180;10205;49.678;6.560;2023-06-14T03:36:56;99638.00;;;23.60
20092;BMP180;10205;49.678;6.560;2023-06-14T03:39:25;99635.00;;;23.60
20092;BMP180;10205;49.678;6.560;2023-06-14T03:41:53;99643.00;;;23.60
20092;BMP180;10205;49.678;6.560;2023-06-14T03:44:20;99639.00;;;23.50
20092;BMP180;10205;49.678;6.560;2023-06-14T03:46:48;99646.00;;;23.50
20092;BMP180;10205;49.678;6.560;2023-06-14T03:49:15;99646.00;;;23.40
20092;BMP180;10205;49.678;6.560;2023-06-14T03:51:43;99641.00;;;23.40
20092;BMP180;10205;49.678;6.560;2023-06-14T03:54:11;99643.00;;;23.40
20092;BMP180;10205;49.678;6.560;2023-06-14T03:56:39;99644.00;;;23.30
20092;BMP180;10205;49.678;6.560;2023-06-14T03:59:07;99645.00;;;23.30
20092;BMP180;10205;49.678;6.560;2023-06-14T04:01:34;99645.00;;;23.30
20092;BMP180;10205;49.678;6.560;2023-06-14T04:04:01;99641.00;;;23.20
20092;BMP180;10205;49.678;6.560;2023-06-14T04:06:29;99646.00;;;23.20
20092;BMP180;10205;49.678;6.560;2023-06-14T04:08:59;99648.00;;;23.10
20092;BMP180;10205;49.678;6.560;2023-06-14T04:11:30;99650.00;;;23.10
20092;BMP180;10205;49.678;6.560;2023-06-14T04:13:59;99651.00;;;23.00
20092;BMP180;10205;49.678;6.560;2023-06-14T04:16:27;99659.00;;;23.00
20092;BMP180;10205;49.678;6.560;2023-06-14T04:18:55;99658.00;;;23.00
20092;BMP180;10205;49.678;6.560;2023-06-14T04:21:24;99659.00;;;22.90
20092;BMP180;10205;49.678;6.560;2023-06-14T04:23:53;99656.00;;;22.90
20092;BMP180;10205;49.678;6.560;2023-06-14T04:26:22;99663.00;;;22.90
20092;BMP180;10205;49.678;6.560;2023-06-14T04:28:55;99665.00;;;22.80
20092;BMP180;10205;49.678;6.560;2023-06-14T04:31:29;99674.00;;;22.80
20092;BMP180;10205;49.678;6.560;2023-06-14T04:33:59;99674.00;;;22.80
20092;BMP180;10205;49.678;6.560;2023-06-14T04:36:26;99676.00;;;22.70
20092;BMP180;10205;49.678;6.560;2023-06-14T04:38:54;99671.00;;;22.70
20092;BMP180;10205;49.678;6.560;2023-06-14T04:41:21;99676.00;;;22.70
20092;BMP180;10205;49.678;6.560;2023-06-14T04:43:49;99677.00;;;22.60
20092;BMP180;10205;49.678;6.560;2023-06-14T04:46:19;99686.00;;;22.60
20092;BMP180;10205;49.678;6.560;2023-06-14T04:48:47;99678.00;;;22.60
20092;BMP180;10205;49.678;6.560;2023-06-14T04:51:16;99684.00;;;22.50
20092;BMP180;10205;49.678;6.560;2023-06-14T04:53:46;99685.00;;;22.50
20092;BMP180;10205;49.678;6.560;2023-06-14T04:56:15;99687.00;;;22.50
20092;BMP180;10205;49.678;6.560;2023-06-14T04:58:42;99690.00;;;22.40
20092;BMP180;10205;49.678;6.560;2023-06-14T05:01:10;99690.00;;;22.40
20092;BMP180;10205;49.678;6.560;2023-06-14T05:03:38;99692.00;;;22.40
20092;BMP180;10205;49.678;6.560;2023-06-14T05:06:08;99696.00;;;22.40
20092;BMP180;10205;49.678;6.560;2023-06-14T05:08:35;99693.00;;;22.30
20092;BMP180;10205;49.678;6.560;2023-06-14T05:11:03;99703.00;;;22.30
20092;BMP180;10205;49.678;6.560;2023-06-14T05:13:30;99693.00;;;22.30
20092;BMP180;10205;49.678;6.560;2023-06-14T05:15:58;99695.00;;;22.20
20092;BMP180;10205;49.678;6.560;2023-06-14T05:18:26;99690.00;;;22.20
20092;BMP180;10205;49.678;6.560;2023-06-14T05:20:54;99688.00;;;22.20
20092;BMP180;10205;49.678;6.560;2023-06-14T05:23:22;99687.00;;;22.20
20092;BMP180;10205;49.678;6.560;2023-06-14T05:25:50;99692.00;;;22.20
20092;BMP180;10205;49.678;6.560;2023-06-14T05:28:17;99690.00;;;22.20
20092;BMP180;10205;49.678;6.560;2023-06-14T05:30:44;99690.00;;;22.10
20092;BMP180;10205;49.678;6.560;2023-06-14T05:33:12;99694.00;;;22.10
20092;BMP180;10205;49.678;6.560;2023-06-14T05:35:39;99691.00;;;22.10
20092;BMP180;10205;49.678;6.560;2023-06-14T05:38:06;99693.00;;;22.10
20092;BMP180;10205;49.678;6.560;2023-06-14T05:40:35;99693.00;;;22.10
20092;BMP180;10205;49.678;6.560;2023-06-14T05:43:02;99685.00;;;22.10
20092;BMP180;10205;49.678;6.560;2023-06-14T05:45:29;99695.00;;;22.00
20092;BMP180;10205;49.678;6.560;2023-06-14T05:47:57;99712.00;;;22.00
20092;BMP180;10205;49.678;6.560;2023-06-14T05:50:24;99704.00;;;22.00
20092;BMP180;10205;49.678;6.560;2023-06-14T05:52:51;99709.00;;;22.00
20092;BMP180;10205;49.678;6.560;2023-06-14T05:55:18;99708.00;;;21.90
20092;BMP180;10205;49.678;6.560;2023-06-14T05:57:47;99713.00;;;21.90
20092;BMP180;10205;49.678;6.560;2023-06-14T06:00:16;99711.00;;;21.90
20092;BMP180;10205;49.678;6.560;2023-06-14T06:02:44;99713.00;;;21.80
20092;BMP180;10205;49.678;6.560;2023-06-14T06:05:13;99713.00;;;21.80
20092;BMP180;10205;49.678;6.560;2023-06-14T06:07:42;99710.00;;;21.80
20092;BMP180;10205;49.678;6.560;2023-06-14T06:10:10;99715.00;;;21.80
20092;BMP180;10205;49.678;6.560;2023-06-14T06:12:37;99712.00;;;21.70
20092;BMP180;10205;49.678;6.560;2023-06-14T06:15:07;99710.00;;;21.70
20092;BMP180;10205;49.678;6.560;2023-06-14T06:17:37;99715.00;;;21.70
20092;BMP180;10205;49.678;6.560;2023-06-14T06:20:06;99718.00;;;21.70
20092;BMP180;10205;49.678;6.560;2023-06-14T06:22:34;99722.00;;;21.70
20092;BMP180;10205;49.678;6.560;2023-06-14T06:25:01;99710.00;;;21.70
20092;BMP180;10205;49.678;6.560;2023-06-14T06:27:29;99708.00;;;21.80
20092;BMP180;10205;49.678;6.560;2023-06-14T06:29:56;99711.00;;;21.80
20092;BMP180;10205;49.678;6.560;2023-06-14T06:32:24;99711.00;;;21.80
20092;BMP180;10205;49.678;6.560;2023-06-14T06:34:52;99713.00;;;21.80
20092;BMP180;10205;49.678;6.560;2023-06-14T06:37:20;99731.00;;;21.90
20092;BMP180;10205;49.678;6.560;2023-06-14T06:39:47;99723.00;;;21.90
20092;BMP180;10205;49.678;6.560;2023-06-14T06:42:14;99723.00;;;21.90
20092;BMP180;10205;49.678;6.560;2023-06-14T06:44:41;99729.00;;;22.00
20092;BMP180;10205;49.678;6.560;2023-06-14T06:47:09;99724.00;;;22.00
20092;BMP180;10205;49.678;6.560;2023-06-14T06:49:40;99725.00;;;22.00
20092;BMP180;10205;49.678;6.560;2023-06-14T06:52:08;99722.00;;;22.10
20092;BMP180;10205;49.678;6.560;2023-06-14T06:54:35;99728.00;;;22.10
20092;BMP180;10205;49.678;6.560;2023-06-14T06:57:03;99725.00;;;22.20
20092;BMP180;10205;49.678;6.560;2023-06-14T06:59:32;99723.00;;;22.20
20092;BMP180;10205;49.678;6.560;2023-06-14T07:01:59;99725.00;;;22.20
20092;BMP180;10205;49.678;6.560;2023-06-14T07:04:26;99735.00;;;22.30
20092;BMP180;10205;49.678;6.560;2023-06-14T07:06:55;99733.00;;;22.40
20092;BMP180;10205;49.678;6.560;2023-06-14T07:09:22;99733.00;;;22.40
20092;BMP180;10205;49.678;6.560;2023-06-14T07:11:50;99743.00;;;22.50
20092;BMP180;10205;49.678;6.560;2023-06-14T07:14:18;99739.00;;;22.50
20092;BMP180;10205;49.678;6.560;2023-06-14T07:16:45;99740.00;;;22.60
20092;BMP180;10205;49.678;6.560;2023-06-14T07:19:12;99744.00;;;22.70
20092;BMP180;10205;49.678;6.560;2023-06-14T07:21:39;99746.00;;;22.70
20092;BMP180;10205;49.678;6.560;2023-06-14T07:24:08;99732.00;;;22.80
20092;BMP180;10205;49.678;6.560;2023-06-14T07:26:36;99739.00;;;22.80
20092;BMP180;10205;49.678;6.560;2023-06-14T07:29:03;99732.00;;;22.90
20092;BMP180;10205;49.678;6.560;2023-06-14T07:31:30;99736.00;;;23.00
20092;BMP180;10205;49.678;6.560;2023-06-14T07:33:58;99733.00;;;23.00
20092;BMP180;10205;49.678;6.560;2023-06-14T07:36:25;99728.00;;;23.10
20092;BMP180;10205;49.678;6.560;2023-06-14T07:38:52;99739.00;;;23.10
20092;BMP180;10205;49.678;6.560;2023-06-14T07:41:21;99739.00;;;23.20
20092;BMP180;10205;49.678;6.560;2023-06-14T07:43:48;99728.00;;;23.30
20092;BMP180;10205;49.678;6.560;2023-06-14T07:46:16;99727.00;;;23.40
20092;BMP180;10205;49.678;6.560;2023-06-14T07:48:43;99729.00;;;23.50
20092;BMP180;10205;49.678;6.560;2023-06-14T07:51:10;99726.00;;;23.60
20092;BMP180;10205;49.678;6.560;2023-06-14T07:53:37;99727.00;;;23.60
20092;BMP180;10205;49.678;6.560;2023-06-14T07:56:04;99722.00;;;23.70
20092;BMP180;10205;49.678;6.560;2023-06-14T07:58:33;99722.00;;;23.80
20092;BMP180;10205;49.678;6.560;2023-06-14T08:01:00;99731.00;;;23.90
20092;BMP180;10205;49.678;6.560;2023-06-14T08:03:32;99723.00;;;24.00
20092;BMP180;10205;49.678;6.560;2023-06-14T08:05:59;99723.00;;;24.10
20092;BMP180;10205;49.678;6.560;2023-06-14T08:08:27;99722.00;;;24.20
20092;BMP180;10205;49.678;6.560;2023-06-14T08:10:54;99716.00;;;24.30
20092;BMP180;10205;49.678;6.560;2023-06-14T08:13:21;99715.00;;;24.40
20092;BMP180;10205;49.678;6.560;2023-06-14T08:15:50;99715.00;;;24.50
20092;BMP180;10205;49.678;6.560;2023-06-14T08:18:17;99708.00;;;24.60
20092;BMP180;10205;49.678;6.560;2023-06-14T08:20:44;99712.00;;;24.70
20092;BMP180;10205;49.678;6.560;2023-06-14T08:23:12;99717.00;;;24.80
20092;BMP180;10205;49.678;6.560;2023-06-14T08:25:39;99711.00;;;24.90
20092;BMP180;10205;49.678;6.560;2023-06-14T08:28:06;99712.00;;;25.00
20092;BMP180;10205;49.678;6.560;2023-06-14T08:30:33;99711.00;;;25.10
20092;BMP180;10205;49.678;6.560;2023-06-14T08:33:02;99716.00;;;25.10
20092;BMP180;10205;49.678;6.560;2023-06-14T08:35:29;99718.00;;;25.20
20092;BMP180;10205;49.678;6.560;2023-06-14T08:37:56;99716.00;;;25.30
20092;BMP180;10205;49.678;6.560;2023-06-14T08:40:24;99715.00;;;25.40
20092;BMP180;10205;49.678;6.560;2023-06-14T08:42:52;99722.00;;;25.50
20092;BMP180;10205;49.678;6.560;2023-06-14T08:45:20;99714.00;;;25.60
20092;BMP180;10205;49.678;6.560;2023-06-14T08:47:48;99718.00;;;25.70
20092;BMP180;10205;49.678;6.560;2023-06-14T08:50:21;99721.00;;;25.80
20092;BMP180;10205;49.678;6.560;2023-06-14T08:52:54;99710.00;;;25.90
20092;BMP180;10205;49.678;6.560;2023-06-14T08:55:23;99713.00;;;26.00
20092;BMP180;10205;49.678;6.560;2023-06-14T08:57:55;99716.00;;;26.10
20092;BMP180;10205;49.678;6.560;2023-06-14T09:00:24;99704.00;;;26.20
20092;BMP180;10205;49.678;6.560;2023-06-14T09:02:51;99717.00;;;26.30
20092;BMP180;10205;49.678;6.560;2023-06-14T09:05:25;99716.00;;;26.40
20092;BMP180;10205;49.678;6.560;2023-06-14T09:07:53;99714.00;;;26.50
20092;BMP180;10205;49.678;6.560;2023-06-14T09:10:23;99715.00;;;26.60
20092;BMP180;10205;49.678;6.560;2023-06-14T09:12:51;99724.00;;;26.60
20092;BMP180;10205;49.678;6.560;2023-06-14T09:15:19;99724.00;;;26.70
20092;BMP180;10205;49.678;6.560;2023-06-14T09:17:46;99716.00;;;26.80
20092;BMP180;10205;49.678;6.560;2023-06-14T09:20:14;99725.00;;;26.90
20092;BMP180;10205;49.678;6.560;2023-06-14T09:22:45;99721.00;;;27.00
20092;BMP180;10205;49.678;6.560;2023-06-14T09:25:13;99728.00;;;27.10
20092;BMP180;10205;49.678;6.560;2023-06-14T09:27:41;99727.00;;;27.20
20092;BMP180;10205;49.678;6.560;2023-06-14T09:30:10;99731.00;;;27.30
20092;BMP180;10205;49.678;6.560;2023-06-14T09:32:39;99730.00;;;27.40
20092;BMP180;10205;49.678;6.560;2023-06-14T09:35:08;99733.00;;;27.50
20092;BMP180;10205;49.678;6.560;2023-06-14T09:37:36;99735.00;;;27.60
20092;BMP180;10205;49.678;6.560;2023-06-14T09:40:07;99738.00;;;27.60
20092;BMP180;10205;49.678;6.560;2023-06-14T09:42:35;99739.00;;;27.70
20092;BMP180;10205;49.678;6.560;2023-06-14T09:45:04;99738.00;;;27.80
20092;BMP180;10205;49.678;6.560;2023-06-14T09:47:32;99740.00;;;27.90
20092;BMP180;10205;49.678;6.560;2023-06-14T09:49:59;99741.00;;;28.00
20092;BMP180;10205;49.678;6.560;2023-06-14T09:52:28;99745.00;;;28.10
20092;BMP180;10205;49.678;6.560;2023-06-14T09:55:00;99737.00;;;28.20
20092;BMP180;10205;49.678;6.560;2023-06-14T09:57:30;99744.00;;;28.30
20092;BMP180;10205;49.678;6.560;2023-06-14T10:00:02;99745.00;;;28.40
20092;BMP180;10205;49.678;6.560;2023-06-14T10:02:37;99745.00;;;28.50
20092;BMP180;10205;49.678;6.560;2023-06-14T10:05:08;99734.00;;;28.50
20092;BMP180;10205;49.678;6.560;2023-06-14T10:07:42;99745.00;;;28.60
20092;BMP180;10205;49.678;6.560;2023-06-14T10:10:11;99744.00;;;28.70
20092;BMP180;10205;49.678;6.560;2023-06-14T10:12:40;99737.00;;;28.80
20092;BMP180;10205;49.678;6.560;2023-06-14T10:15:12;99747.00;;;28.80
20092;BMP180;10205;49.678;6.560;2023-06-14T10:17:47;99741.00;;;28.90
20092;BMP180;10205;49.678;6.560;2023-06-14T10:20:27;99737.00;;;29.00
20092;BMP180;10205;49.678;6.560;2023-06-14T10:23:03;99732.00;;;29.10
20092;BMP180;10205;49.678;6.560;2023-06-14T10:25:33;99735.00;;;29.20
20092;BMP180;10205;49.678;6.560;2023-06-14T10:28:16;99730.00;;;29.30
20092;BMP180;10205;49.678;6.560;2023-06-14T10:31:04;99738.00;;;29.40
20092;BMP180;10205;49.678;6.560;2023-06-14T10:33:32;99729.00;;;29.40
20092;BMP180;10205;49.678;6.560;2023-06-14T10:36:24;99727.00;;;29.50
20092;BMP180;10205;49.678;6.560;2023-06-14T10:38:59;99729.00;;;29.60
20092;BMP180;10205;49.678;6.560;2023-06-14T10:41:28;99738.00;;;29.70
20092;BMP180;10205;49.678;6.560;2023-06-14T10:44:50;99748.00;;;29.80
20092;BMP180;10205;49.678;6.560;2023-06-14T10:47:24;99731.00;;;29.80
20092;BMP180;10205;49.678;6.560;2023-06-14T10:49:54;99745.00;;;29.90
20092;BMP180;10205;49.678;6.560;2023-06-14T10:52:27;99734.00;;;30.00
20092;BMP180;10205;49.678;6.560;2023-06-14T10:55:09;99734.00;;;30.10
20092;BMP180;10205;49.678;6.560;2023-06-14T10:57:40;99742.00;;;30.10
20092;BMP180;10205;49.678;6.560;2023-06-14T11:00:12;99739.00;;;30.20
20092;BMP180;10205;49.678;6.560;2023-06-14T11:03:23;99739.00;;;30.30
20092;BMP180;10205;49.678;6.560;2023-06-14T11:05:58;99740.00;;;30.40
20092;BMP180;10205;49.678;6.560;2023-06-14T11:12:00;99741.00;;;30.50
20092;BMP180;10205;49.678;6.560;2023-06-14T11:14:30;99734.00;;;30.60
20092;BMP180;10205;49.678;6.560;2023-06-14T11:16:59;99749.00;;;30.70
20092;BMP180;10205;49.678;6.560;2023-06-14T11:19:26;99740.00;;;30.80
20092;BMP180;10205;49.678;6.560;2023-06-14T11:21:55;99734.00;;;30.80
20092;BMP180;10205;49.678;6.560;2023-06-14T11:24:22;99736.00;;;30.90
20092;BMP180;10205;49.678;6.560;2023-06-14T11:26:50;99732.00;;;31.00
20092;BMP180;10205;49.678;6.560;2023-06-14T11:29:20;99738.00;;;31.10
20092;BMP180;10205;49.678;6.560;2023-06-14T11:31:47;99740.00;;;31.10
20092;BMP180;10205;49.678;6.560;2023-06-14T11:34:17;99738.00;;;31.20
20092;BMP180;10205;49.678;6.560;2023-06-14T11:36:45;99729.00;;;31.30
20092;BMP180;10205;49.678;6.560;2023-06-14T11:39:13;99731.00;;;31.30
20092;BMP180;10205;49.678;6.560;2023-06-14T11:41:43;99729.00;;;31.40
20092;BMP180;10205;49.678;6.560;2023-06-14T11:44:11;99723.00;;;31.40
20092;BMP180;10205;49.678;6.560;2023-06-14T11:46:39;99730.00;;;31.50
20092;BMP180;10205;49.678;6.560;2023-06-14T11:49:08;99735.00;;;31.50
20092;BMP180;10205;49.678;6.560;2023-06-14T11:51:37;99740.00;;;31.60
20092;BMP180;10205;49.678;6.560;2023-06-14T11:54:06;99732.00;;;31.70
20092;BMP180;10205;49.678;6.560;2023-06-14T11:56:36;99731.00;;;31.80
20092;BMP180;10205;49.678;6.560;2023-06-14T11:59:04;99726.00;;;31.80
20092;BMP180;10205;49.678;6.560;2023-06-14T12:01:31;99734.00;;;31.90
20092;BMP180;10205;49.678;6.560;2023-06-14T12:03:59;99728.00;;;32.00
20092;BMP180;10205;49.678;6.560;2023-06-14T12:06:28;99731.00;;;32.00
20092;BMP180;10205;49.678;6.560;2023-06-14T12:09:02;99725.00;;;32.10
20092;BMP180;10205;49.678;6.560;2023-06-14T12:11:33;99721.00;;;32.20
20092;BMP180;10205;49.678;6.560;2023-06-14T12:14:03;99722.00;;;32.20
20092;BMP180;10205;49.678;6.560;2023-06-14T12:16:35;99721.00;;;32.30
20092;BMP180;10205;49.678;6.560;2023-06-14T12:19:11;99717.00;;;32.30
20092;BMP180;10205;49.678;6.560;2023-06-14T12:21:39;99718.00;;;32.40
20092;BMP180;10205;49.678;6.560;2023-06-14T12:24:09;99723.00;;;32.40
20092;BMP180;10205;49.678;6.560;2023-06-14T12:26:39;99720.00;;;32.50
20092;BMP180;10205;49.678;6.560;2023-06-14T12:29:08;99723.00;;;32.50
20092;BMP180;10205;49.678;6.560;2023-06-14T12:31:35;99730.00;;;32.60
20092;BMP180;10205;49.678;6.560;2023-06-14T12:34:03;99719.00;;;32.60
20092;BMP180;10205;49.678;6.560;2023-06-14T12:36:30;99721.00;;;32.70
20092;BMP180;10205;49.678;6.560;2023-06-14T12:38:58;99733.00;;;32.70
20092;BMP180;10205;49.678;6.560;2023-06-14T12:41:26;99718.00;;;32.80
20092;BMP180;10205;49.678;6.560;2023-06-14T12:43:54;99729.00;;;32.80
20092;BMP180;10205;49.678;6.560;2023-06-14T12:46:23;99723.00;;;32.90
20092;BMP180;10205;49.678;6.560;2023-06-14T12:48:51;99727.00;;;32.90
20092;BMP180;10205;49.678;6.560;2023-06-14T12:51:18;99721.00;;;33.00
20092;BMP180;10205;49.678;6.560;2023-06-14T12:53:46;99720.00;;;33.00
20092;BMP180;10205;49.678;6.560;2023-06-14T12:56:13;99713.00;;;33.10
20092;BMP180;10205;49.678;6.560;2023-06-14T12:58:41;99725.00;;;33.10
20092;BMP180;10205;49.678;6.560;2023-06-14T13:01:09;99739.00;;;33.20
20092;BMP180;10205;49.678;6.560;2023-06-14T13:03:36;99731.00;;;33.20
20092;BMP180;10205;49.678;6.560;2023-06-14T13:06:03;99732.00;;;33.30
20092;BMP180;10205;49.678;6.560;2023-06-14T13:08:31;99728.00;;;33.30
20092;BMP180;10205;49.678;6.560;2023-06-14T13:10:58;99734.00;;;33.40
20092;BMP180;10205;49.678;6.560;2023-06-14T13:13:26;99738.00;;;33.50
20092;BMP180;10205;49.678;6.560;2023-06-14T13:15:55;99736.00;;;33.50
20092;BMP180;10205;49.678;6.560;2023-06-14T13:18:22;99734.00;;;33.60
20092;BMP180;10205;49.678;6.560;2023-06-14T13:20:49;99730.00;;;33.60
20092;BMP180;10205;49.678;6.560;2023-06-14T13:23:17;99743.00;;;33.60
20092;BMP180;10205;49.678;6.560;2023-06-14T13:25:44;99743.00;;;33.60
20092;BMP180;10205;49.678;6.560;2023-06-14T13:28:11;99728.00;;;33.60
20092;BMP180;10205;49.678;6.560;2023-06-14T13:30:38;99733.00;;;33.70
20092;BMP180;10205;49.678;6.560;2023-06-14T13:33:07;99730.00;;;33.70
20092;BMP180;10205;49.678;6.560;2023-06-14T13:35:34;99737.00;;;33.80
20092;BMP180;10205;49.678;6.560;2023-06-14T13:38:02;99740.00;;;33.80
20092;BMP180;10205;49.678;6.560;2023-06-14T13:40:29;99742.00;;;33.80
20092;BMP180;10205;49.678;6.560;2023-06-14T13:42:56;99742.00;;;33.80
20092;BMP180;10205;49.678;6.560;2023-06-14T13:45:24;99729.00;;;33.80
20092;BMP180;10205;49.678;6.560;2023-06-14T13:47:52;99728.00;;;33.80
20092;BMP180;10205;49.678;6.560;2023-06-14T13:50:22;99727.00;;;33.80
20092;BMP180;10205;49.678;6.560;2023-06-14T13:52:49;99729.00;;;33.80
20092;BMP180;10205;49.678;6.560;2023-06-14T13:55:16;99732.00;;;33.80
20092;BMP180;10205;49.678;6.560;2023-06-14T13:57:44;99727.00;;;33.80
20092;BMP180;10205;49.678;6.560;2023-06-14T14:00:13;99729.00;;;33.80
20092;BMP180;10205;49.678;6.560;2023-06-14T14:02:40;99729.00;;;33.80
20092;BMP180;10205;49.678;6.560;2023-06-14T14:05:09;99732.00;;;33.80
20092;BMP180;10205;49.678;6.560;2023-06-14T14:07:38;99729.00;;;33.80
20092;BMP180;10205;49.678;6.560;2023-06-14T14:10:07;99716.00;;;33.80
20092;BMP180;10205;49.678;6.560;2023-06-14T14:12:34;99723.00;;;33.80
20092;BMP180;10205;49.678;6.560;2023-06-14T14:15:03;99720.00;;;33.80
20092;BMP180;10205;49.678;6.560;2023-06-14T14:17:33;99724.00;;;33.80
20092;BMP180;10205;49.678;6.560;2023-06-14T14:20:00;99727.00;;;33.80
20092;BMP180;10205;49.678;6.560;2023-06-14T14:22:27;99724.00;;;33.80